Portada
METAR-TAF:

METAR-TAF

Aeroports :

Portage Glacier, Alaska, Estats Units d'Amèrica

latitud: 60-47N, longitud: 148-50W, altitud: 29 m

Observació

L'informe es va fer fa 1 hora i 5 minuts, a les 08:53 UTC
Vent 16 kt del Est/Sud-Est amb ràfegues de 30 kt
Temperatura 4°C
Humitat 87%
Pressió 1006 hPa
Visibilitat: 4.8 km
Cel cobert a una alçada de 1800 ft
pluja, boirina

METAR: PATO 150853Z AUTO 11016G30KT 3SM RA BR OVC018 04/02 A2972 RMK AO2 PK WND 06034/0818 SLP066 P0010 60030 T00390017 400560006 50001 TSNO

Hora: 00:58 (09:58 UTC)


TAF: manca

Observacions i pronòstics meteorològics de més de 4000 aeroports (METAR i TAF).

Les estacions disponibles són els punts grocs i vermells al mapa.

Posi el ratolí al punt desitjat per veure el nom de l'estació.

Feu clic per veure les observacions i els pronòstics meteorològics.

Per canviar el mapa: feu clic els botons verds amb una creu de color negre per apropar; al botó verd amb un guió per allunyar la imatge; o en les fletxes verdes per a mapes adjacents.


METAR-TAF: